Time;durP1;ratioP1;P1;durP2;ratioP2;P2;SDS_P1;SDS_P2;PMS_P1;PMS_P2;Temp;Humidity;BMP_temperature;BMP_pressure;BME280_temperature;BME280_humidity;BME280_pressure;Samples;Min_cycle;Max_cycle;Signal;HPM_P1;HPM_P2
2021/12/08 00:01:50;;;;;;;2.40;1.08;;;;;;;7.37;51.54;99149.38;5051829;28;20041;-85
2021/12/08 00:04:15;;;;;;;3.08;1.00;;;;;;;7.54;52.16;99145.31;5055573;28;20413;-85
2021/12/08 00:06:41;;;;;;;4.93;1.30;;;;;;;7.83;56.70;99133.97;5066144;28;20025;-85
2021/12/08 00:09:26;;;;;;;2.03;0.77;;;;;;;7.93;59.17;99126.72;5055805;28;20037;-85
2021/12/08 00:14:35;;;;;;;3.08;0.80;;;;;;;7.61;54.73;99133.88;5053398;28;20542;-85
2021/12/08 00:17:01;;;;;;;3.55;0.95;;;;;;;7.37;57.07;99129.56;5061516;28;20040;-85
2021/12/08 00:19:28;;;;;;;2.67;0.82;;;;;;;7.20;54.31;99131.03;5067197;28;20025;-85
2021/12/08 00:21:53;;;;;;;4.07;1.00;;;;;;;7.09;56.85;99123.63;5061330;28;20116;-85
2021/12/08 00:24:19;;;;;;;2.83;0.90;;;;;;;7.32;58.67;99117.66;5048221;28;20033;-85
2021/12/08 00:26:44;;;;;;;1.38;0.70;;;;;;;7.17;56.27;99123.38;5055214;28;20040;-85
2021/12/08 00:29:10;;;;;;;2.10;0.80;;;;;;;7.41;56.64;99115.63;5041452;28;20482;-85
2021/12/08 00:31:35;;;;;;;3.58;1.10;;;;;;;7.24;57.17;99112.78;5061139;28;20154;-85
2021/12/08 00:34:01;;;;;;;4.88;1.00;;;;;;;7.43;63.07;99119.03;5035618;28;20127;-85
2021/12/08 00:36:38;;;;;;;3.03;0.85;;;;;;;7.08;59.81;99127.94;5053634;28;20039;-85
2021/12/08 00:39:04;;;;;;;2.53;1.02;;;;;;;6.81;59.84;99131.41;5055833;28;20033;-85
2021/12/08 00:41:29;;;;;;;1.77;0.80;;;;;;;6.85;59.52;99121.81;5055543;28;20173;-85
2021/12/08 00:43:54;;;;;;;2.13;0.90;;;;;;;6.69;59.37;99112.91;5060062;28;20048;-85
2021/12/08 00:46:20;;;;;;;3.88;0.85;;;;;;;6.93;58.46;99106.97;5051822;28;20516;-85
2021/12/08 00:48:49;;;;;;;3.28;0.90;;;;;;;6.82;58.93;99107.28;5053472;28;20048;-85
2021/12/08 00:51:15;;;;;;;1.88;0.90;;;;;;;6.68;58.95;99119.78;5057891;28;20082;-85
2021/12/08 00:53:41;;;;;;;4.30;1.15;;;;;;;6.76;59.74;99127.28;5050268;28;20048;-85
2021/12/08 00:56:06;;;;;;;1.35;0.80;;;;;;;6.93;60.15;99123.25;5050875;28;20454;-85
2021/12/08 00:58:32;;;;;;;2.95;1.02;;;;;;;7.03;58.59;99134.16;5057825;28;20036;-85
2021/12/08 01:00:57;;;;;;;2.50;0.90;;;;;;;6.55;59.68;99132.22;5065429;28;20038;-85
2021/12/08 01:03:22;;;;;;;1.92;0.95;;;;;;;6.81;59.05;99117.69;5049143;28;20025;-85
2021/12/08 01:05:55;;;;;;;1.23;0.88;;;;;;;7.03;61.52;99124.66;5049643;28;20057;-85
2021/12/08 01:08:23;;;;;;;1.55;0.70;;;;;;;6.76;59.72;99135.88;5053356;28;20116;-86
2021/12/08 01:10:50;;;;;;;1.00;0.88;;;;;;;6.80;59.08;99131.47;5057273;28;20831;-86
2021/12/08 01:13:17;;;;;;;3.50;1.25;;;;;;;6.81;59.88;99126.25;5055468;28;20036;-85
2021/12/08 01:15:49;;;;;;;1.77;0.80;;;;;;;6.99;58.49;99122.22;5058953;28;20519;-85
2021/12/08 01:18:16;;;;;;;1.42;0.77;;;;;;;7.39;60.29;99104.50;5056113;28;20465;-85
2021/12/08 01:20:42;;;;;;;1.30;0.60;;;;;;;7.02;59.02;99111.78;5047196;28;20020;-85
2021/12/08 01:23:08;;;;;;;1.38;0.90;;;;;;;6.81;59.54;99103.00;5052430;28;20032;-85
2021/12/08 01:25:33;;;;;;;2.15;0.80;;;;;;;6.57;60.17;99121.88;5057012;28;20033;-85
2021/12/08 01:27:59;;;;;;;1.52;0.80;;;;;;;6.30;61.25;99120.09;5058311;28;20371;-85
2021/12/08 01:30:25;;;;;;;1.33;0.68;;;;;;;6.72;59.48;99120.53;5078241;28;20112;-85
2021/12/08 01:32:53;;;;;;;1.48;0.80;;;;;;;6.46;60.01;99108.41;5052581;28;20119;-85
2021/12/08 01:35:19;;;;;;;0.95;0.68;;;;;;;6.92;60.15;99108.69;5054087;28;20044;-86
2021/12/08 01:37:45;;;;;;;2.53;0.95;;;;;;;7.02;62.61;99110.06;5055246;28;20060;-85
2021/12/08 01:40:12;;;;;;;1.40;0.70;;;;;;;7.04;60.07;99095.38;5063130;28;20048;-85
2021/12/08 01:42:46;;;;;;;1.25;0.70;;;;;;;7.16;58.70;99096.72;5038606;28;20029;-85
2021/12/08 01:48:11;;;;;;;0.80;0.60;;;;;;;6.68;59.77;99095.72;5046091;28;20088;-85
2021/12/08 01:50:39;;;;;;;1.50;1.05;;;;;;;6.77;59.15;99109.19;5049020;28;20294;-85
2021/12/08 01:53:06;;;;;;;2.53;0.90;;;;;;;6.47;60.81;99116.16;5072713;28;20086;-86
2021/12/08 01:55:32;;;;;;;0.93;0.80;;;;;;;6.66;60.33;99120.75;5059492;28;20040;-85
2021/12/08 01:57:57;;;;;;;1.08;0.80;;;;;;;6.72;60.22;99123.97;5062313;28;20041;-85
2021/12/08 02:00:28;;;;;;;1.55;0.63;;;;;;;6.85;60.74;99114.94;5055234;28;20029;-85
2021/12/08 02:02:53;;;;;;;1.35;0.73;;;;;;;6.74;60.39;99117.03;5064633;28;20028;-85
2021/12/08 02:05:19;;;;;;;1.42;0.70;;;;;;;6.66;60.60;99118.16;5054073;28;20037;-86
2021/12/08 02:07:45;;;;;;;0.98;0.68;;;;;;;6.65;60.69;99119.03;5053750;28;20427;-86
2021/12/08 02:10:11;;;;;;;1.80;0.70;;;;;;;6.69;60.17;99125.81;5054018;28;20041;-86
2021/12/08 02:12:40;;;;;;;2.35;1.00;;;;;;;6.61;61.02;99138.06;5060292;28;20029;-85
2021/12/08 02:15:10;;;;;;;2.17;1.45;;;;;;;6.67;60.87;99136.16;5052814;28;20025;-85
2021/12/08 02:17:37;;;;;;;1.02;0.80;;;;;;;6.34;62.21;99143.16;5049658;28;20116;-85
2021/12/08 02:20:05;;;;;;;2.10;0.70;;;;;;;6.45;63.30;99141.13;5055440;28;20040;-85
2021/12/08 02:22:31;;;;;;;2.50;0.85;;;;;;;6.46;62.87;99147.94;5059706;28;20036;-85
2021/12/08 02:24:57;;;;;;;1.58;0.70;;;;;;;6.47;63.07;99159.13;5039694;28;20041;-85
2021/12/08 02:27:23;;;;;;;1.65;0.88;;;;;;;6.45;62.31;99148.00;5051695;28;20501;-86
2021/12/08 02:29:59;;;;;;;1.77;0.85;;;;;;;6.53;62.27;99149.50;5050917;28;20032;-85
2021/12/08 02:46:36;;;;;;;3.50;1.08;;;;;;;6.65;61.36;99150.00;5056013;28;20025;-85
2021/12/08 02:48:52;;;;;;;1.70;0.80;;;;;;;6.52;62.72;99152.09;5052596;28;20064;-85
2021/12/08 02:51:20;;;;;;;1.95;0.60;;;;;;;6.53;62.55;99148.63;5058241;28;20033;-85
2021/12/08 02:53:47;;;;;;;1.77;0.82;;;;;;;6.60;62.71;99154.47;5054012;28;20028;-85
2021/12/08 02:56:16;;;;;;;2.40;0.98;;;;;;;6.62;62.62;99147.50;5048580;28;20505;-85
2021/12/08 02:58:42;;;;;;;1.27;0.80;;;;;;;6.68;62.37;99150.75;5055746;28;20039;-86
2021/12/08 03:01:09;;;;;;;1.55;0.75;;;;;;;6.72;62.42;99151.50;5067014;28;20049;-86
2021/12/08 03:03:36;;;;;;;1.58;1.00;;;;;;;6.66;62.38;99159.44;5057200;28;20393;-85
2021/12/08 03:06:01;;;;;;;2.60;1.13;;;;;;;6.63;62.63;99164.69;5059617;28;20043;-85
2021/12/08 03:08:27;;;;;;;1.08;0.70;;;;;;;6.59;62.33;99161.34;5050050;28;20032;-85
2021/12/08 03:10:53;;;;;;;1.33;0.90;;;;;;;6.77;62.43;99162.53;5065117;28;20040;-85
2021/12/08 03:13:33;;;;;;;1.27;1.15;;;;;;;6.58;62.48;99157.94;5049243;28;20520;-85
2021/12/08 03:15:58;;;;;;;1.75;1.08;;;;;;;6.75;61.97;99152.22;5055435;28;20064;-85
2021/12/08 03:18:31;;;;;;;2.05;1.10;;;;;;;6.66;63.04;99152.53;5053889;28;20063;-86
2021/12/08 03:20:58;;;;;;;2.92;0.88;;;;;;;6.70;62.24;99146.38;5060878;28;20116;-85
2021/12/08 03:23:30;;;;;;;1.83;1.20;;;;;;;6.72;62.02;99152.38;5051545;28;20029;-86
2021/12/08 03:25:58;;;;;;;1.92;1.10;;;;;;;6.50;62.81;99153.88;5050788;28;20040;-86
2021/12/08 03:28:29;;;;;;;1.10;1.00;;;;;;;6.70;62.30;99155.84;5052056;28;20124;-85
2021/12/08 03:31:07;;;;;;;4.65;1.00;;;;;;;6.73;62.56;99163.50;5056292;28;20068;-86
2021/12/08 03:33:34;;;;;;;1.90;0.70;;;;;;;6.81;63.08;99153.81;5053971;28;20036;-85
2021/12/08 03:35:59;;;;;;;2.20;1.13;;;;;;;6.61;63.16;99159.56;5057714;28;20565;-85
2021/12/08 03:38:26;;;;;;;1.38;0.80;;;;;;;6.63;62.78;99162.97;5053942;28;20037;-85
2021/12/08 03:40:52;;;;;;;3.33;1.02;;;;;;;6.69;62.27;99152.47;5059271;28;20401;-86
2021/12/08 03:43:18;;;;;;;2.90;1.38;;;;;;;6.62;63.42;99158.69;5057104;28;20155;-85
2021/12/08 03:45:47;;;;;;;1.45;0.90;;;;;;;6.64;63.10;99153.47;5063887;28;20424;-85
2021/12/08 03:48:20;;;;;;;1.33;1.08;;;;;;;6.55;62.75;99150.28;5063096;28;20101;-85
2021/12/08 03:50:46;;;;;;;1.20;0.90;;;;;;;6.53;63.03;99159.81;5054930;28;20028;-85
2021/12/08 03:53:15;;;;;;;2.83;1.20;;;;;;;6.60;62.82;99160.47;5059496;28;20028;-85
2021/12/08 03:55:42;;;;;;;1.25;0.93;;;;;;;6.56;63.02;99167.47;5062502;28;20098;-86
2021/12/08 03:58:08;;;;;;;2.20;1.00;;;;;;;6.66;63.23;99167.19;5043850;28;20043;-86
2021/12/08 04:00:33;;;;;;;1.70;0.80;;;;;;;6.72;62.55;99175.59;5058836;28;20033;-85
2021/12/08 04:03:02;;;;;;;1.30;0.90;;;;;;;6.55;63.16;99182.97;5066093;28;20508;-85
2021/12/08 04:05:39;;;;;;;1.40;0.90;;;;;;;6.64;63.61;99184.41;5057692;28;20094;-85
2021/12/08 04:08:14;;;;;;;1.75;0.90;;;;;;;6.67;63.39;99187.75;5055587;28;20124;-86
2021/12/08 04:10:40;;;;;;;1.17;0.80;;;;;;;6.71;63.23;99185.94;5054129;28;20040;-85
2021/12/08 04:13:06;;;;;;;2.42;1.00;;;;;;;6.75;64.16;99183.19;5058650;28;20383;-85
2021/12/08 04:15:32;;;;;;;7.90;1.38;;;;;;;6.76;64.69;99173.72;5065305;28;20037;-85
2021/12/08 04:17:57;;;;;;;1.95;0.80;;;;;;;6.77;65.43;99171.13;5055430;28;20039;-85
2021/12/08 04:20:28;;;;;;;1.73;1.00;;;;;;;6.70;64.91;99181.66;5057047;28;20036;-86
2021/12/08 04:22:56;;;;;;;3.40;1.05;;;;;;;6.68;65.44;99173.97;5057001;28;20052;-86
2021/12/08 04:25:29;;;;;;;1.75;0.90;;;;;;;6.70;64.99;99181.66;5058693;28;20041;-86
2021/12/08 04:27:58;;;;;;;2.35;1.20;;;;;;;6.60;65.85;99172.53;5065675;28;20044;-85
2021/12/08 04:30:43;;;;;;;3.58;1.20;;;;;;;6.51;65.82;99177.03;5061961;28;20040;-85
2021/12/08 04:33:08;;;;;;;;;;;;;;;6.50;66.12;99184.84;5055426;28;20040;-85
2021/12/08 04:35:38;;;;;;;5.13;1.38;;;;;;;6.53;66.72;99197.66;5057263;28;19913;-86
2021/12/08 04:38:08;;;;;;;4.18;0.98;;;;;;;6.61;66.09;99192.25;5057149;28;20052;-85
2021/12/08 04:40:56;;;;;;;2.17;0.95;;;;;;;6.57;65.86;99192.34;5057446;28;20036;-86
2021/12/08 04:43:41;;;;;;;1.50;0.93;;;;;;;6.62;65.83;99181.06;5060367;28;20064;-85
2021/12/08 05:05:24;;;;;;;1.75;0.90;;;;;;;6.34;66.49;99207.63;5055863;28;20045;-86
2021/12/08 05:07:56;;;;;;;1.35;0.90;;;;;;;6.52;64.91;99209.69;5063754;28;20120;-86
2021/12/08 05:10:31;;;;;;;1.45;0.90;;;;;;;6.44;65.45;99214.22;5059058;28;20505;-85
2021/12/08 05:13:00;;;;;;;1.40;1.05;;;;;;;6.43;66.22;99211.66;5062238;28;20041;-86
2021/12/08 05:15:33;;;;;;;4.47;1.70;;;;;;;6.21;66.67;99220.91;5046952;28;20099;-85
2021/12/08 05:18:13;;;;;;;3.50;1.25;;;;;;;6.58;64.89;99214.69;5049710;28;20147;-85
2021/12/08 05:21:05;;;;;;;2.95;1.17;;;;;;;6.65;65.64;99224.81;5053039;28;20044;-85
2021/12/08 05:23:40;;;;;;;2.60;1.42;;;;;;;6.50;65.49;99218.38;5077143;28;20029;-86
2021/12/08 05:26:24;;;;;;;4.75;1.80;;;;;;;6.62;65.18;99210.28;5058682;28;20445;-86
2021/12/08 05:28:55;;;;;;;1.67;1.08;;;;;;;6.48;65.65;99222.75;5051296;28;20516;-86
2021/12/08 05:31:28;;;;;;;2.67;0.98;;;;;;;6.62;65.67;99225.75;5049641;28;20040;-86
2021/12/08 05:33:54;;;;;;;1.77;0.85;;;;;;;6.61;65.15;99228.38;5048855;28;20079;-86
2021/12/08 05:36:19;;;;;;;1.58;1.05;;;;;;;6.66;65.61;99229.09;5057098;28;20037;-86
2021/12/08 05:38:46;;;;;;;2.00;1.02;;;;;;;6.68;65.08;99225.59;5054086;28;20465;-85
2021/12/08 05:41:18;;;;;;;3.08;1.27;;;;;;;6.68;65.66;99225.59;5050699;28;20409;-86
2021/12/08 05:43:45;;;;;;;1.58;1.00;;;;;;;6.66;65.08;99231.69;5051562;28;20099;-85
2021/12/08 05:46:12;;;;;;;3.10;1.00;;;;;;;6.73;64.52;99239.19;5047540;28;20064;-86
2021/12/08 05:48:38;;;;;;;1.38;1.00;;;;;;;6.70;64.44;99234.13;5056192;28;20120;-85
2021/12/08 05:51:11;;;;;;;2.78;1.20;;;;;;;6.55;65.40;99247.47;5055243;28;20111;-86
2021/12/08 05:53:39;;;;;;;2.05;1.17;;;;;;;6.55;65.40;99239.72;5034443;28;20021;-86
2021/12/08 05:56:06;;;;;;;5.65;1.30;;;;;;;6.61;65.35;99230.94;5053810;28;20045;-86
2021/12/08 05:58:33;;;;;;;1.92;0.90;;;;;;;6.67;65.34;99223.88;5058966;28;20044;-86
2021/12/08 06:01:07;;;;;;;1.45;0.85;;;;;;;6.68;65.40;99228.16;5053582;28;20040;-86
2021/12/08 06:03:33;;;;;;;2.15;1.20;;;;;;;6.45;66.80;99233.13;5055617;28;20056;-85
2021/12/08 06:05:59;;;;;;;1.17;0.90;;;;;;;6.61;65.12;99230.94;5053761;28;20048;-86
2021/12/08 06:08:27;;;;;;;3.50;1.15;;;;;;;6.60;65.89;99237.03;5056159;28;20035;-86
2021/12/08 06:10:54;;;;;;;3.10;1.42;;;;;;;6.52;66.08;99230.34;5052353;28;20029;-86
2021/12/08 06:13:20;;;;;;;3.60;1.20;;;;;;;6.61;65.13;99225.78;5051827;28;20044;-86
2021/12/08 06:15:47;;;;;;;4.03;1.25;;;;;;;6.51;65.74;99231.22;5036998;28;20123;-86
2021/12/08 06:18:14;;;;;;;2.60;1.13;;;;;;;6.44;66.65;99237.44;5062879;28;20046;-85
2021/12/08 06:20:40;;;;;;;2.88;1.08;;;;;;;6.56;66.45;99231.09;5059773;28;20404;-85
2021/12/08 06:23:08;;;;;;;2.90;1.17;;;;;;;6.40;66.72;99232.38;5048759;28;20025;-86
2021/12/08 06:25:35;;;;;;;2.33;0.95;;;;;;;6.58;65.63;99235.31;5056460;28;20119;-86
2021/12/08 06:28:00;;;;;;;2.35;1.20;;;;;;;6.57;65.56;99230.22;5052978;28;20033;-86
2021/12/08 06:30:29;;;;;;;3.10;1.27;;;;;;;6.48;66.12;99230.50;5056884;28;20106;-86
2021/12/08 06:32:55;;;;;;;4.80;1.60;;;;;;;6.49;65.58;99227.84;5053243;28;20032;-86
2021/12/08 06:35:32;;;;;;;3.53;1.23;;;;;;;6.48;65.43;99241.63;5058142;28;20017;-86
2021/12/08 06:37:58;;;;;;;3.50;1.65;;;;;;;6.50;65.27;99242.44;5053912;28;20124;-86
2021/12/08 06:40:35;;;;;;;1.77;1.10;;;;;;;6.57;64.87;99238.78;5062606;28;20397;-86
2021/12/08 06:43:04;;;;;;;2.17;1.23;;;;;;;6.49;65.65;99245.91;5048895;28;20045;-86
2021/12/08 06:45:35;;;;;;;3.13;1.20;;;;;;;6.40;65.39;99253.03;5049751;28;20055;-86
2021/12/08 06:48:10;;;;;;;1.40;0.80;;;;;;;6.46;65.59;99252.84;5056598;28;20037;-85
2021/12/08 06:50:47;;;;;;;3.88;1.55;;;;;;;6.29;65.55;99266.22;5051177;28;20029;-86
2021/12/08 06:53:12;;;;;;;2.85;1.63;;;;;;;6.39;65.92;99285.72;5054237;28;20596;-86
2021/12/08 06:55:44;;;;;;;4.43;1.85;;;;;;;6.29;66.37;99286.00;5051582;28;20115;-86
2021/12/08 06:58:18;;;;;;;2.88;1.60;;;;;;;6.40;65.78;99284.81;5055037;28;20033;-86
2021/12/08 07:03:48;;;;;;;2.15;1.00;;;;;;;6.43;65.52;99274.41;5063542;28;20493;-86
2021/12/08 07:06:40;;;;;;;4.18;1.25;;;;;;;6.25;64.88;99281.81;5054858;28;20417;-85
2021/12/08 07:09:06;;;;;;;2.78;0.90;;;;;;;6.31;66.01;99284.22;5054032;28;20041;-85
2021/12/08 07:11:34;;;;;;;3.15;1.50;;;;;;;6.45;64.51;99290.72;5057004;28;20093;-85
2021/12/08 07:14:00;;;;;;;5.18;1.65;;;;;;;6.32;65.70;99293.66;5058207;28;20040;-86
2021/12/08 07:16:34;;;;;;;5.47;1.40;;;;;;;6.46;65.33;99294.97;5056978;28;20115;-86
2021/12/08 07:19:10;;;;;;;3.15;1.10;;;;;;;6.57;64.52;99298.13;5052669;28;20040;-86
2021/12/08 07:21:43;;;;;;;2.80;1.60;;;;;;;6.49;65.71;99294.06;5053189;28;20032;-86
2021/12/08 07:24:30;;;;;;;5.95;1.30;;;;;;;6.58;64.62;99283.50;5053921;28;20180;-85
2021/12/08 07:27:00;;;;;;;2.40;0.98;;;;;;;6.52;64.50;99291.41;5054125;28;20033;-86
2021/12/08 07:29:30;;;;;;;2.80;1.25;;;;;;;6.58;64.62;99302.41;5041572;28;20017;-86
2021/12/08 07:32:01;;;;;;;3.47;1.50;;;;;;;6.57;64.37;99289.56;5049089;28;20733;-86
2021/12/08 07:34:27;;;;;;;3.80;2.00;;;;;;;6.56;64.87;99290.44;5032758;28;20063;-86
2021/12/08 07:36:59;;;;;;;7.80;1.52;;;;;;;6.48;64.28;99294.97;5047604;28;20049;-86
2021/12/08 07:39:28;;;;;;;3.22;1.20;;;;;;;6.51;65.08;99298.28;5072483;28;20040;-85
2021/12/08 07:42:01;;;;;;;4.32;1.15;;;;;;;6.57;64.02;99305.03;5048964;28;20504;-85
2021/12/08 07:44:27;;;;;;;3.85;1.70;;;;;;;6.47;64.49;99308.72;5058076;28;20036;-86
2021/12/08 07:47:05;;;;;;;3.90;1.40;;;;;;;6.53;64.62;99309.44;5049160;28;20033;-86
2021/12/08 07:49:39;;;;;;;5.82;1.88;;;;;;;6.59;64.63;99303.25;5054498;28;20039;-86
2021/12/08 07:52:07;;;;;;;5.82;1.90;;;;;;;6.59;64.84;99313.56;5056691;28;20033;-86
2021/12/08 07:54:34;;;;;;;5.70;1.75;;;;;;;6.48;64.39;99320.78;5057021;28;20503;-85
2021/12/08 07:57:04;;;;;;;6.03;1.77;;;;;;;6.59;64.70;99318.72;5052530;28;20049;-85
2021/12/08 07:59:31;;;;;;;8.27;2.10;;;;;;;6.55;64.14;99312.81;5053364;28;20042;-86
2021/12/08 08:02:06;;;;;;;5.07;1.98;;;;;;;6.53;64.39;99300.84;5055945;28;20116;-86
2021/12/08 08:04:33;;;;;;;2.25;1.33;;;;;;;6.59;63.66;99298.09;5052824;28;20020;-85
2021/12/08 08:06:59;;;;;;;4.68;1.60;;;;;;;6.59;63.67;99303.25;5052162;28;20032;-85
2021/12/08 08:09:37;;;;;;;6.00;1.65;;;;;;;6.45;64.93;99306.19;5047869;28;20115;-85
2021/12/08 08:12:09;;;;;;;2.58;1.70;;;;;;;6.57;63.77;99302.47;5054401;28;20041;-85
2021/12/08 08:14:41;;;;;;;5.05;1.27;;;;;;;6.59;63.78;99298.09;5051414;28;20024;-86
2021/12/08 08:17:10;;;;;;;4.80;1.00;;;;;;;6.58;63.59;99304.97;5052872;28;20126;-86
2021/12/08 08:19:42;;;;;;;6.63;2.47;;;;;;;6.41;64.96;99303.72;5049403;28;20032;-85
2021/12/08 08:22:10;;;;;;;5.03;1.92;;;;;;;6.39;64.27;99313.25;5048089;28;20037;-86
2021/12/08 08:24:37;;;;;;;2.75;1.10;;;;;;;6.52;64.07;99304.31;5048241;28;20116;-86
2021/12/08 08:27:08;;;;;;;3.28;1.33;;;;;;;6.53;63.98;99293.97;5055204;28;20119;-85
2021/12/08 08:29:34;;;;;;;4.28;1.40;;;;;;;6.40;64.73;99295.13;5057831;28;20050;-85
2021/12/08 08:32:19;;;;;;;3.50;1.30;;;;;;;6.43;63.99;99296.78;5059014;28;20090;-85
2021/12/08 08:34:48;;;;;;;7.85;1.60;;;;;;;6.60;64.34;99304.09;5054761;28;20501;-85
2021/12/08 08:37:14;;;;;;;3.10;1.10;;;;;;;6.44;64.75;99306.22;5060564;28;20502;-85
2021/12/08 08:39:51;;;;;;;4.00;1.52;;;;;;;6.62;64.03;99297.16;5059722;28;20025;-85
2021/12/08 08:42:22;;;;;;;4.47;1.63;;;;;;;6.51;64.52;99300.06;5052274;28;20041;-85
2021/12/08 08:45:05;;;;;;;3.08;1.17;;;;;;;6.48;64.03;99302.72;5050873;28;20033;-85
2021/12/08 08:47:53;;;;;;;3.85;1.70;;;;;;;6.63;64.07;99298.84;5050234;28;20020;-86
2021/12/08 08:50:27;;;;;;;5.47;1.77;;;;;;;6.76;63.63;99292.44;5061262;28;20052;-85
2021/12/08 08:52:56;;;;;;;2.65;1.50;;;;;;;6.64;63.44;99295.38;5055219;28;20401;-85
2021/12/08 08:55:39;;;;;;;3.42;1.80;;;;;;;6.77;63.56;99314.78;5054888;28;20115;-85
2021/12/08 08:58:08;;;;;;;4.78;1.45;;;;;;;6.73;63.25;99318.34;5056109;28;20478;-85
2021/12/08 09:00:42;;;;;;;4.60;1.67;;;;;;;6.62;64.38;99322.94;5069756;28;20076;-85
2021/12/08 09:03:15;;;;;;;4.20;1.50;;;;;;;6.58;63.70;99333.34;5058837;28;20029;-85
2021/12/08 09:05:49;;;;;;;3.83;1.40;;;;;;;6.75;63.82;99325.13;5072704;28;20025;-85
2021/12/08 09:08:15;;;;;;;6.00;1.33;;;;;;;6.76;63.58;99333.72;5046912;28;20040;-85
2021/12/08 09:10:47;;;;;;;4.45;1.65;;;;;;;6.77;63.67;99345.75;5058822;28;20037;-85
2021/12/08 09:13:18;;;;;;;6.57;1.30;;;;;;;6.82;63.37;99357.63;5065412;28;20490;-85
2021/12/08 09:15:52;;;;;;;3.85;1.35;;;;;;;6.87;63.42;99358.34;5061771;28;20115;-85
2021/12/08 09:18:29;;;;;;;4.28;1.73;;;;;;;6.89;63.02;99363.47;5047880;28;20113;-85
2021/12/08 09:21:09;;;;;;;2.58;1.17;;;;;;;6.75;63.44;99360.44;5048624;28;20036;-85
2021/12/08 09:23:48;;;;;;;4.18;1.50;;;;;;;6.95;63.07;99355.56;5049269;28;20029;-85
2021/12/08 09:26:18;;;;;;;6.57;1.33;;;;;;;6.83;63.25;99350.75;5057686;28;20033;-85
2021/12/08 09:28:58;;;;;;;4.53;1.48;;;;;;;6.84;63.95;99348.09;5060523;28;20044;-85
2021/12/08 09:31:33;;;;;;;6.15;1.52;;;;;;;6.92;63.40;99345.31;5049959;28;20071;-85
2021/12/08 09:34:16;;;;;;;6.53;1.10;;;;;;;6.84;63.57;99352.44;5045297;28;20037;-85
2021/12/08 09:36:48;;;;;;;6.00;1.38;;;;;;;6.94;63.26;99352.13;5061982;28;20116;-85
2021/12/08 09:39:46;;;;;;;3.60;1.30;;;;;;;6.85;62.88;99349.81;5050618;28;20128;-85
2021/12/08 09:42:20;;;;;;;6.75;1.30;;;;;;;6.70;63.80;99355.41;5055050;28;20029;-85
2021/12/08 09:45:14;;;;;;;3.65;1.48;;;;;;;6.87;63.86;99355.75;5059174;28;20389;-85
2021/12/08 09:47:40;;;;;;;4.28;1.13;;;;;;;6.79;63.68;99364.63;5060763;28;20028;-85
2021/12/08 09:50:09;;;;;;;4.10;1.58;;;;;;;6.94;63.21;99362.44;5052772;28;20049;-85
2021/12/08 09:52:35;;;;;;;6.45;1.23;;;;;;;6.88;63.32;99369.53;5049135;28;20064;-85
2021/12/08 09:55:03;;;;;;;6.63;1.63;;;;;;;6.87;63.80;99380.75;5054155;28;20510;-86
2021/12/08 09:57:30;;;;;;;5.72;1.45;;;;;;;6.93;63.66;99396.88;5053583;28;20524;-85
2021/12/08 09:59:56;;;;;;;7.97;1.92;;;;;;;6.94;64.10;99402.91;5059380;28;20025;-85
2021/12/08 10:02:32;;;;;;;6.10;1.77;;;;;;;6.85;64.23;99403.16;5055642;28;20033;-85
2021/12/08 10:05:05;;;;;;;6.82;1.70;;;;;;;6.85;63.53;99401.44;5051415;28;20044;-86
2021/12/08 10:07:31;;;;;;;5.38;1.80;;;;;;;6.87;62.77;99402.22;5057083;28;20497;-85
2021/12/08 10:09:57;;;;;;;2.97;1.10;;;;;;;6.93;62.62;99404.63;5051576;28;20048;-85
2021/12/08 10:12:22;;;;;;;11.65;3.28;;;;;;;6.95;62.31;99402.88;5056350;28;20478;-85
2021/12/08 10:14:50;;;;;;;5.20;2.00;;;;;;;7.00;63.04;99405.31;5059370;28;20481;-85
2021/12/08 10:17:18;;;;;;;8.90;2.50;;;;;;;6.95;61.68;99410.63;5054140;28;20516;-85
2021/12/08 10:19:46;;;;;;;4.25;1.33;;;;;;;7.15;61.19;99415.22;5047112;28;20037;-85
2021/12/08 10:22:19;;;;;;;5.25;1.30;;;;;;;7.11;61.88;99422.19;5051678;28;20037;-85
2021/12/08 10:25:03;;;;;;;3.38;1.30;;;;;;;6.87;61.68;99429.78;5056758;28;20068;-85
2021/12/08 10:27:29;;;;;;;3.30;1.10;;;;;;;6.95;61.66;99428.69;5062982;28;20037;-85
2021/12/08 10:30:17;;;;;;;3.05;1.30;;;;;;;6.94;60.87;99424.41;5061641;28;20036;-85
2021/12/08 10:32:43;;;;;;;7.20;1.38;;;;;;;7.02;61.81;99430.19;5053298;28;20150;-85
2021/12/08 10:35:47;;;;;;;4.60;1.60;;;;;;;7.03;61.79;99421.56;5046981;28;20108;-86
2021/12/08 10:38:16;;;;;;;5.25;1.13;;;;;;;7.02;60.83;99414.72;5051595;28;20053;-85
2021/12/08 10:41:03;;;;;;;5.28;1.38;;;;;;;6.64;62.72;99409.75;5057119;28;20032;-85
2021/12/08 10:43:29;;;;;;;10.95;1.30;;;;;;;6.57;62.51;99414.22;5058718;28;21787;-85
2021/12/08 10:46:15;;;;;;;2.28;1.10;;;;;;;6.83;61.92;99404.94;5041540;28;20632;-85
2021/12/08 10:48:45;;;;;;;2.15;0.93;;;;;;;6.88;62.16;99395.31;5050443;28;20194;-85
2021/12/08 10:54:43;;;;;;;4.38;1.30;;;;;;;6.84;61.41;99391.16;5052751;28;20135;-85
2021/12/08 10:57:30;;;;;;;5.63;1.25;;;;;;;7.02;61.76;99391.47;5021703;28;20042;-85
2021/12/08 11:00:18;;;;;;;3.33;1.20;;;;;;;6.88;61.40;99393.59;5044116;28;20025;-85
2021/12/08 11:02:48;;;;;;;9.07;1.48;;;;;;;7.13;60.73;99388.59;5072119;28;20028;-85
2021/12/08 11:05:26;;;;;;;2.90;1.10;;;;;;;7.22;59.47;99390.06;5052143;28;20025;-85
2021/12/08 11:08:08;;;;;;;6.13;1.92;;;;;;;7.10;60.06;99392.13;5051315;28;20029;-86
2021/12/08 11:10:41;;;;;;;10.25;1.23;;;;;;;7.14;59.87;99396.28;5052216;28;20036;-85
2021/12/08 11:13:08;;;;;;;8.25;1.88;;;;;;;7.24;60.93;99409.78;5060018;28;20358;-85
2021/12/08 11:15:35;;;;;;;4.75;0.98;;;;;;;7.29;59.98;99407.91;5051622;28;20029;-85
2021/12/08 11:18:13;;;;;;;4.93;1.10;;;;;;;7.31;60.24;99410.47;5057046;28;20497;-85
2021/12/08 11:20:47;;;;;;;4.53;1.10;;;;;;;6.98;59.96;99414.84;5048198;28;20499;-85
2021/12/08 11:23:16;;;;;;;6.45;1.40;;;;;;;7.02;59.56;99424.19;5044723;28;20536;-85
2021/12/08 11:25:47;;;;;;;4.07;1.33;;;;;;;7.40;59.51;99430.84;5056854;28;20402;-86
2021/12/08 11:28:33;;;;;;;7.50;1.05;;;;;;;7.37;58.71;99416.31;5050824;28;20608;-85
2021/12/08 11:31:16;;;;;;;6.03;1.50;;;;;;;7.38;59.52;99419.69;5047629;28;20048;-85
2021/12/08 11:33:48;;;;;;;4.93;1.15;;;;;;;7.43;59.55;99425.59;5049775;28;20033;-85
2021/12/08 11:36:19;;;;;;;5.50;1.27;;;;;;;7.25;58.61;99424.41;5052405;28;20044;-85
2021/12/08 11:38:47;;;;;;;4.05;1.10;;;;;;;7.36;58.50;99417.19;5060936;28;20037;-85
2021/12/08 11:41:24;;;;;;;7.00;1.13;;;;;;;7.41;57.96;99411.88;5053527;28;20025;-85
2021/12/08 11:43:55;;;;;;;5.57;1.00;;;;;;;7.49;59.15;99404.75;5048834;28;20045;-85
2021/12/08 11:46:22;;;;;;;4.78;1.08;;;;;;;7.43;58.06;99398.03;5048028;28;20037;-85
2021/12/08 11:49:10;;;;;;;3.13;0.93;;;;;;;7.30;58.45;99395.84;5056303;28;20112;-85
2021/12/08 11:51:44;;;;;;;6.35;1.02;;;;;;;7.40;57.92;99400.72;5041295;28;20098;-85
2021/12/08 11:54:32;;;;;;;3.13;1.08;;;;;;;7.27;58.62;99396.78;5052573;28;20032;-85
2021/12/08 11:57:03;;;;;;;5.53;1.00;;;;;;;7.16;58.64;99393.69;5048836;28;20052;-85
2021/12/08 11:59:28;;;;;;;3.92;1.23;;;;;;;7.33;58.07;99391.44;5065384;28;20028;-85
2021/12/08 12:01:54;;;;;;;4.00;1.00;;;;;;;7.46;58.36;99394.50;5037585;28;20125;-85
2021/12/08 12:04:20;;;;;;;5.13;1.67;;;;;;;7.27;58.05;99388.19;5060681;28;20386;-85
2021/12/08 12:06:45;;;;;;;4.32;1.20;;;;;;;7.52;56.37;99386.56;5054976;28;20033;-85
2021/12/08 12:09:11;;;;;;;3.53;0.93;;;;;;;7.32;57.85;99388.88;5049969;28;20057;-85
2021/12/08 12:11:37;;;;;;;4.25;1.00;;;;;;;7.41;58.10;99389.47;5060017;28;20037;-85
2021/12/08 12:14:03;;;;;;;6.75;1.55;;;;;;;7.53;57.05;99386.50;5073625;28;20040;-85
2021/12/08 12:16:30;;;;;;;1.48;0.80;;;;;;;7.29;57.88;99384.66;5060651;28;20033;-85
2021/12/08 12:19:01;;;;;;;5.40;0.85;;;;;;;7.38;57.46;99386.97;5061434;28;20037;-85
2021/12/08 12:21:58;;;;;;;8.13;1.35;;;;;;;7.56;57.15;99390.72;5053477;28;20033;-85
2021/12/08 12:24:48;;;;;;;1.67;0.80;;;;;;;7.22;56.73;99390.91;5056468;28;20033;-85
2021/12/08 12:27:31;;;;;;;4.80;1.17;;;;;;;7.53;57.00;99393.41;5054950;28;20053;-85
2021/12/08 12:30:26;;;;;;;6.50;1.08;;;;;;;7.39;56.58;99393.00;5060905;28;20037;-85
2021/12/08 12:32:53;;;;;;;5.10;1.27;;;;;;;7.43;57.48;99402.34;5052104;28;20047;-85
2021/12/08 12:35:24;;;;;;;3.67;0.95;;;;;;;7.26;58.27;99407.13;5061456;28;20086;-85
2021/12/08 12:38:02;;;;;;;3.83;1.10;;;;;;;7.52;57.51;99407.25;5053175;28;20163;-85
2021/12/08 12:40:51;;;;;;;4.82;0.98;;;;;;;7.60;57.16;99403.53;5062248;28;20037;-85
2021/12/08 12:43:39;;;;;;;3.97;1.00;;;;;;;7.35;57.57;99402.56;5058348;28;20025;-85
2021/12/08 12:46:10;;;;;;;4.57;1.33;;;;;;;7.30;56.47;99401.00;5059766;28;20071;-85